createdAt,value
2022-08-27T00:00:49.585Z,99881.96
2022-08-27T00:03:18.537Z,99880.50
2022-08-27T00:05:46.242Z,99874.31
2022-08-27T00:08:16.640Z,99875.14
2022-08-27T00:10:44.291Z,99879.39
2022-08-27T00:13:11.921Z,99874.65
2022-08-27T00:15:39.608Z,99877.48
2022-08-27T00:18:07.703Z,99880.52
2022-08-27T00:20:35.477Z,99877.71
2022-08-27T00:23:03.124Z,99877.04
2022-08-27T00:25:30.890Z,99872.55
2022-08-27T00:27:58.584Z,99872.02
2022-08-27T00:30:26.346Z,99867.36
2022-08-27T00:32:54.024Z,99869.35
2022-08-27T00:35:21.637Z,99870.28
2022-08-27T00:37:50.154Z,99869.36
2022-08-27T00:40:21.406Z,99873.97
2022-08-27T00:42:49.927Z,99870.98
2022-08-27T00:45:22.891Z,99872.77
2022-08-27T00:47:54.960Z,99870.84
2022-08-27T00:50:49.022Z,99872.09
2022-08-27T00:53:23.188Z,99873.91
2022-08-27T00:55:59.905Z,99874.20
2022-08-27T00:58:32.402Z,99876.61
2022-08-27T01:01:01.479Z,99879.23
2022-08-27T01:03:29.475Z,99878.48
2022-08-27T01:06:01.520Z,99877.20
2022-08-27T01:08:33.892Z,99881.55
2022-08-27T01:11:02.366Z,99875.23
2022-08-27T01:13:44.205Z,99873.00
2022-08-27T01:16:26.916Z,99871.50
2022-08-27T01:18:56.025Z,99870.56
2022-08-27T01:21:38.959Z,99867.91
2022-08-27T01:24:35.756Z,99873.52
2022-08-27T01:27:08.096Z,99866.27
2022-08-27T01:29:42.682Z,99864.27
2022-08-27T01:32:23.697Z,99866.04
2022-08-27T01:34:51.861Z,99865.45
2022-08-27T01:37:23.968Z,99865.07
2022-08-27T01:39:54.090Z,99867.56
2022-08-27T01:42:40.283Z,99866.54
2022-08-27T01:45:12.914Z,99867.71
2022-08-27T01:47:41.151Z,99872.58
2022-08-27T01:50:14.427Z,99876.79
2022-08-27T01:52:42.120Z,99876.83
2022-08-27T01:55:12.917Z,99871.90
2022-08-27T01:57:40.944Z,99871.16
2022-08-27T02:00:22.527Z,99870.89
2022-08-27T02:02:51.556Z,99868.20
2022-08-27T02:05:20.029Z,99868.88
2022-08-27T02:07:47.710Z,99869.19
2022-08-27T02:10:21.049Z,99867.39
2022-08-27T02:12:49.518Z,99863.17
2022-08-27T02:15:17.609Z,99862.58
2022-08-27T02:17:46.362Z,99859.20
2022-08-27T02:20:17.132Z,99853.58
2022-08-27T02:22:45.209Z,99850.33
2022-08-27T02:25:15.410Z,99845.60
2022-08-27T02:27:44.126Z,99842.15
2022-08-27T02:30:15.676Z,99844.53
2022-08-27T02:32:45.560Z,99845.17
2022-08-27T02:35:18.152Z,99849.64
2022-08-27T02:37:46.412Z,99845.91
2022-08-27T02:40:17.758Z,99843.89
2022-08-27T02:42:46.571Z,99842.58
2022-08-27T02:45:15.867Z,99838.02
2022-08-27T02:47:43.626Z,99837.73
2022-08-27T02:50:13.661Z,99834.52
2022-08-27T02:52:41.761Z,99836.95
2022-08-27T02:55:09.689Z,99835.30
2022-08-27T02:57:38.417Z,99833.94
2022-08-27T03:00:11.309Z,99839.86
2022-08-27T03:02:39.210Z,99839.70
2022-08-27T03:05:08.754Z,99842.29
2022-08-27T03:07:37.233Z,99842.67
2022-08-27T03:10:06.622Z,99841.34
2022-08-27T03:12:36.242Z,99846.01
2022-08-27T03:15:06.263Z,99848.30
2022-08-27T03:17:49.832Z,99848.31
2022-08-27T03:20:18.933Z,99848.61
2022-08-27T03:22:46.655Z,99848.31
2022-08-27T03:25:14.754Z,99843.09
2022-08-27T03:27:42.583Z,99847.47
2022-08-27T03:30:13.516Z,99846.53
2022-08-27T03:32:42.147Z,99844.59
2022-08-27T03:35:11.630Z,99844.48
2022-08-27T03:37:39.603Z,99842.51
2022-08-27T03:40:08.158Z,99842.23
2022-08-27T03:42:37.261Z,99840.48
2022-08-27T03:45:06.935Z,99839.81
2022-08-27T03:47:35.601Z,99842.52
2022-08-27T03:50:05.896Z,99843.36
2022-08-27T03:52:35.712Z,99843.30
2022-08-27T03:55:07.472Z,99840.23
2022-08-27T03:57:35.736Z,99842.73
2022-08-27T04:00:06.797Z,99843.71
2022-08-27T04:02:41.824Z,99848.42
2022-08-27T04:05:12.760Z,99853.88
2022-08-27T04:07:41.302Z,99852.24
2022-08-27T04:10:11.164Z,99849.25
2022-08-27T04:12:39.329Z,99849.22
2022-08-27T04:15:09.478Z,99849.77
2022-08-27T04:17:37.301Z,99849.40
2022-08-27T04:20:31.677Z,99847.65
2022-08-27T04:22:55.404Z,99847.90
2022-08-27T04:25:23.103Z,99847.85
2022-08-27T04:27:51.107Z,99840.32
2022-08-27T04:30:19.308Z,99843.42
2022-08-27T04:32:46.982Z,99845.09
2022-08-27T04:35:14.646Z,99844.17
2022-08-27T04:37:42.376Z,99840.19
2022-08-27T04:40:10.832Z,99842.54
2022-08-27T04:42:38.624Z,99842.89
2022-08-27T04:45:06.776Z,99844.00
2022-08-27T04:47:35.596Z,99841.23
2022-08-27T04:50:04.254Z,99842.59
2022-08-27T04:52:33.617Z,99839.63
2022-08-27T04:55:09.284Z,99839.77
2022-08-27T04:57:37.978Z,99841.14
2022-08-27T05:00:07.988Z,99845.34
2022-08-27T05:02:35.618Z,99846.95
2022-08-27T05:05:03.409Z,99844.84
2022-08-27T05:07:31.114Z,99849.19
2022-08-27T05:09:58.762Z,99846.21
2022-08-27T05:12:26.430Z,99843.78
2022-08-27T05:14:54.622Z,99844.86
2022-08-27T05:17:22.304Z,99844.05
2022-08-27T05:19:50.007Z,99841.89
2022-08-27T05:22:17.680Z,99843.27
2022-08-27T05:24:50.236Z,99842.88
2022-08-27T05:27:18.334Z,99842.36
2022-08-27T05:29:45.956Z,99840.36
2022-08-27T05:32:13.651Z,99843.64
2022-08-27T05:34:41.374Z,99843.11
2022-08-27T05:37:09.066Z,99844.23
2022-08-27T05:39:36.824Z,99846.83
2022-08-27T05:42:04.711Z,99846.13
2022-08-27T05:44:41.362Z,99846.14
2022-08-27T05:47:10.202Z,99843.20
2022-08-27T05:49:37.978Z,99841.91
2022-08-27T05:52:09.472Z,99843.98
2022-08-27T05:54:37.689Z,99839.16
2022-08-27T05:57:05.894Z,99839.46
2022-08-27T05:59:49.651Z,99835.10
2022-08-27T06:02:19.102Z,99833.94
2022-08-27T06:04:47.296Z,99841.70
2022-08-27T06:07:15.493Z,99839.42
2022-08-27T06:09:43.309Z,99841.44
2022-08-27T06:12:11.010Z,99838.04
2022-08-27T06:14:38.824Z,99835.61
2022-08-27T06:17:06.514Z,99838.14
2022-08-27T06:19:36.277Z,99838.35
2022-08-27T06:22:09.774Z,99837.73
2022-08-27T06:24:42.580Z,99835.22
2022-08-27T06:27:16.967Z,99838.60
2022-08-27T06:29:45.243Z,99838.56
2022-08-27T06:32:14.665Z,99836.21
2022-08-27T06:34:42.435Z,99832.84
2022-08-27T06:37:10.457Z,99835.10
2022-08-27T06:39:39.323Z,99833.48
2022-08-27T06:42:11.035Z,99834.27
2022-08-27T06:44:40.981Z,99834.17
2022-08-27T06:47:08.735Z,99832.58
2022-08-27T06:49:40.299Z,99832.46
2022-08-27T06:52:08.107Z,99830.08
2022-08-27T06:54:37.503Z,99830.34
2022-08-27T06:57:05.193Z,99833.93
2022-08-27T06:59:33.295Z,99835.84
2022-08-27T07:02:01.011Z,99841.10
2022-08-27T07:04:32.198Z,99841.22
2022-08-27T07:07:02.666Z,99842.42
2022-08-27T07:09:32.413Z,99843.92
2022-08-27T07:12:01.405Z,99839.14
2022-08-27T07:14:32.944Z,99838.79
2022-08-27T07:17:05.427Z,99840.59
2022-08-27T07:19:41.170Z,99838.40
2022-08-27T07:22:09.371Z,99839.39
2022-08-27T07:24:38.078Z,99838.95
2022-08-27T07:27:06.919Z,99839.77
2022-08-27T07:29:34.626Z,99835.61
2022-08-27T07:32:02.503Z,99831.98
2022-08-27T07:34:30.124Z,99833.97
2022-08-27T07:36:57.773Z,99831.83
2022-08-27T07:39:25.472Z,99829.48
2022-08-27T07:42:12.923Z,99830.70
2022-08-27T07:44:40.587Z,99831.35
2022-08-27T07:47:08.310Z,99834.52
2022-08-27T07:49:36.307Z,99832.75
2022-08-27T07:52:04.455Z,99833.60
2022-08-27T07:54:32.964Z,99831.30
2022-08-27T07:57:01.538Z,99830.89
2022-08-27T07:59:29.482Z,99832.25
2022-08-27T08:01:57.964Z,99834.05
2022-08-27T08:04:26.640Z,99835.50
2022-08-27T08:06:55.787Z,99832.09
2022-08-27T08:09:24.901Z,99832.71
2022-08-27T08:11:53.994Z,99831.65
2022-08-27T08:14:22.179Z,99830.56
2022-08-27T08:16:50.290Z,99834.39
2022-08-27T08:19:18.091Z,99835.60
2022-08-27T08:21:45.725Z,99832.45
2022-08-27T08:24:13.392Z,99830.94
2022-08-27T08:26:42.004Z,99833.11
2022-08-27T08:29:13.829Z,99828.98
2022-08-27T08:31:50.272Z,99827.88
2022-08-27T08:34:19.778Z,99829.87
2022-08-27T08:36:52.456Z,99829.52
2022-08-27T08:39:23.975Z,99826.29
2022-08-27T08:41:57.504Z,99832.52
2022-08-27T08:44:31.811Z,99831.90
2022-08-27T08:47:14.578Z,99833.91
2022-08-27T08:50:05.551Z,99830.08
2022-08-27T08:52:52.309Z,99827.10
2022-08-27T08:55:36.624Z,99832.10
2022-08-27T08:58:15.165Z,99830.11
2022-08-27T09:00:45.524Z,99827.54
2022-08-27T09:03:15.925Z,99826.48
2022-08-27T09:06:19.748Z,99826.73
2022-08-27T09:08:47.800Z,99826.94
2022-08-27T09:11:46.775Z,99829.46
2022-08-27T09:14:45.354Z,99820.70
2022-08-27T09:17:14.743Z,99818.35
2022-08-27T09:19:43.130Z,99811.81
2022-08-27T09:22:24.095Z,99812.01
2022-08-27T09:25:11.640Z,99808.77
2022-08-27T09:27:42.793Z,99813.04
2022-08-27T09:30:16.470Z,99808.04
2022-08-27T09:32:44.246Z,99806.90
2022-08-27T09:35:15.186Z,99804.85
2022-08-27T09:37:47.968Z,99803.88
2022-08-27T09:40:23.835Z,99804.40
2022-08-27T09:42:55.912Z,99799.88
2022-08-27T09:45:29.932Z,99798.70
2022-08-27T09:48:07.863Z,99800.08
2022-08-27T09:51:00.468Z,99798.06
2022-08-27T09:53:44.794Z,99794.05
2022-08-27T09:56:35.486Z,99795.80
2022-08-27T09:59:08.832Z,99795.57
2022-08-27T10:02:13.120Z,99796.83
2022-08-27T10:04:51.860Z,99790.80
2022-08-27T10:07:41.870Z,99786.51
2022-08-27T10:10:17.918Z,99784.83
2022-08-27T10:12:51.828Z,99784.69
2022-08-27T10:15:19.882Z,99780.32
2022-08-27T10:17:50.395Z,99778.89
2022-08-27T10:20:30.543Z,99778.19
2022-08-27T10:23:29.667Z,99779.83
2022-08-27T10:26:09.069Z,99777.44
2022-08-27T10:29:08.109Z,99776.30
2022-08-27T10:32:04.264Z,99774.70
2022-08-27T10:34:57.111Z,99769.72
2022-08-27T10:37:57.427Z,99769.02
2022-08-27T10:40:50.790Z,99774.73
2022-08-27T10:43:40.771Z,99768.59
2022-08-27T10:46:27.326Z,99768.89
2022-08-27T10:49:21.145Z,99765.34
2022-08-27T10:52:13.377Z,99768.75
2022-08-27T10:54:56.940Z,99769.45
2022-08-27T10:57:55.179Z,99771.31
2022-08-27T11:00:33.361Z,99774.93
2022-08-27T11:03:37.254Z,99772.02
2022-08-27T11:06:33.745Z,99768.72
2022-08-27T11:09:17.387Z,99766.52
2022-08-27T11:14:46.126Z,99755.52
2022-08-27T11:17:32.645Z,99761.95
2022-08-27T11:20:21.620Z,99758.20
2022-08-27T11:22:56.529Z,99752.10
2022-08-27T11:25:58.329Z,99756.44
2022-08-27T11:28:30.392Z,99751.24
2022-08-27T11:31:08.520Z,99746.05
2022-08-27T11:33:42.802Z,99746.54
2022-08-27T11:36:32.980Z,99739.35
2022-08-27T11:39:21.688Z,99737.48
2022-08-27T11:42:21.324Z,99737.05
2022-08-27T11:44:57.509Z,99736.45
2022-08-27T11:47:27.771Z,99734.84
2022-08-27T11:50:02.046Z,99729.04
2022-08-27T11:52:35.161Z,99724.64
2022-08-27T11:55:31.459Z,99724.27
2022-08-27T11:58:04.265Z,99720.79
2022-08-27T12:00:37.438Z,99716.59
2022-08-27T12:03:23.632Z,99716.20
2022-08-27T12:05:54.357Z,99707.32
2022-08-27T12:08:21.902Z,99709.52
2022-08-27T12:11:02.289Z,99706.95
2022-08-27T12:13:43.563Z,99705.61
2022-08-27T12:16:47.527Z,99705.46
2022-08-27T12:19:47.179Z,99708.10
2022-08-27T12:23:01.434Z,99707.78
2022-08-27T12:25:29.113Z,99702.23
2022-08-27T12:28:04.271Z,99702.58
2022-08-27T12:30:39.199Z,99698.64
2022-08-27T12:33:18.742Z,99696.87
2022-08-27T12:35:50.433Z,99693.64
2022-08-27T12:38:36.718Z,99689.32
2022-08-27T12:41:09.113Z,99687.66
2022-08-27T12:43:43.166Z,99688.77
2022-08-27T12:46:19.146Z,99687.98
2022-08-27T12:48:54.148Z,99685.52
2022-08-27T12:51:38.071Z,99684.23
2022-08-27T12:54:36.635Z,99675.42
2022-08-27T12:57:30.378Z,99668.13
2022-08-27T13:00:12.716Z,99665.87
2022-08-27T13:03:03.894Z,99659.80
2022-08-27T13:05:49.509Z,99657.72
2022-08-27T13:08:21.542Z,99653.60
2022-08-27T13:10:50.282Z,99647.85
2022-08-27T13:13:22.097Z,99640.96
2022-08-27T13:15:53.202Z,99647.68
2022-08-27T13:18:22.150Z,99673.48
2022-08-27T13:21:00.119Z,99676.02
2022-08-27T13:23:28.018Z,99676.11
2022-08-27T13:26:10.122Z,99672.96
2022-08-27T13:28:40.958Z,99671.36
2022-08-27T13:31:12.974Z,99672.70
2022-08-27T13:33:42.049Z,99669.42
2022-08-27T13:36:10.241Z,99672.27
2022-08-27T13:38:49.953Z,99679.93
2022-08-27T13:41:30.375Z,99681.83
2022-08-27T13:44:06.345Z,99678.88
2022-08-27T13:46:48.705Z,99682.58
2022-08-27T13:49:25.569Z,99680.14
2022-08-27T13:52:17.363Z,99680.13
2022-08-27T13:54:49.244Z,99678.57
2022-08-27T13:57:48.820Z,99680.75
2022-08-27T14:00:21.375Z,99678.66
2022-08-27T14:02:55.830Z,99678.66
2022-08-27T14:05:24.116Z,99674.59
2022-08-27T14:07:58.248Z,99676.58
2022-08-27T14:10:33.425Z,99676.86
2022-08-27T14:13:06.276Z,99674.94
2022-08-27T14:15:38.420Z,99674.67
2022-08-27T14:18:32.175Z,99672.37
2022-08-27T14:21:09.398Z,99671.92
2022-08-27T14:23:37.346Z,99673.05
2022-08-27T14:26:05.576Z,99667.64
2022-08-27T14:28:33.224Z,99666.48
2022-08-27T14:31:00.934Z,99669.71
2022-08-27T14:33:28.695Z,99666.93
2022-08-27T14:35:56.388Z,99664.66
2022-08-27T14:38:26.701Z,99661.08
2022-08-27T14:40:54.926Z,99664.40
2022-08-27T14:43:22.968Z,99664.89
2022-08-27T14:45:53.346Z,99664.25
2022-08-27T14:48:28.555Z,99663.54
2022-08-27T14:50:58.916Z,99664.20
2022-08-27T14:53:26.907Z,99666.88
2022-08-27T14:55:56.050Z,99663.83
2022-08-27T14:58:23.683Z,99663.82
2022-08-27T15:00:52.077Z,99661.27
2022-08-27T15:03:20.021Z,99659.42
2022-08-27T15:05:47.762Z,99663.14
2022-08-27T15:08:16.801Z,99660.48
2022-08-27T15:10:45.289Z,99654.14
2022-08-27T15:13:13.233Z,99653.16
2022-08-27T15:15:41.205Z,99650.52
2022-08-27T15:18:09.494Z,99650.77
2022-08-27T15:20:37.563Z,99655.50
2022-08-27T15:23:05.262Z,99653.35
2022-08-27T15:25:33.413Z,99656.23
2022-08-27T15:28:01.155Z,99655.88
2022-08-27T15:30:29.171Z,99653.30
2022-08-27T15:32:56.944Z,99654.45
2022-08-27T15:35:27.417Z,99647.12
2022-08-27T15:37:56.944Z,99647.98
2022-08-27T15:40:26.838Z,99645.48
2022-08-27T15:43:02.211Z,99647.94
2022-08-27T15:45:32.325Z,99643.70
2022-08-27T15:48:00.342Z,99643.66
2022-08-27T15:50:31.022Z,99641.25
2022-08-27T15:53:01.851Z,99638.98
2022-08-27T15:55:33.184Z,99631.52
2022-08-27T15:58:01.252Z,99629.53
2022-08-27T16:00:32.419Z,99632.06
2022-08-27T16:03:01.209Z,99633.34
2022-08-27T16:05:33.027Z,99625.27
2022-08-27T16:08:00.725Z,99625.50
2022-08-27T16:10:28.392Z,99632.91
2022-08-27T16:12:56.080Z,99630.61
2022-08-27T16:15:23.741Z,99627.03
2022-08-27T16:18:00.101Z,99623.25
2022-08-27T16:20:28.662Z,99625.83
2022-08-27T16:22:56.437Z,99627.73
2022-08-27T16:25:24.178Z,99624.98
2022-08-27T16:27:53.391Z,99626.30
2022-08-27T16:30:22.519Z,99624.66
2022-08-27T16:32:55.899Z,99622.83
2022-08-27T16:35:25.059Z,99620.21
2022-08-27T16:37:52.676Z,99622.49
2022-08-27T16:40:21.370Z,99617.00
2022-08-27T16:42:51.228Z,99618.52
2022-08-27T16:45:26.100Z,99622.27
2022-08-27T16:48:09.898Z,99624.48
2022-08-27T16:50:39.539Z,99621.79
2022-08-27T16:53:13.899Z,99621.81
2022-08-27T16:55:43.757Z,99624.80
2022-08-27T16:58:31.711Z,99621.20
2022-08-27T17:01:04.051Z,99622.49
2022-08-27T17:03:32.059Z,99627.96
2022-08-27T17:05:59.726Z,99628.83
2022-08-27T17:08:30.242Z,99629.96
2022-08-27T17:10:58.609Z,99629.52
2022-08-27T17:13:30.110Z,99629.34
2022-08-27T17:15:57.966Z,99630.66
2022-08-27T17:18:27.532Z,99632.23
2022-08-27T17:20:56.984Z,99634.05
2022-08-27T17:23:29.407Z,99633.06
2022-08-27T17:25:57.096Z,99638.38
2022-08-27T17:28:24.885Z,99635.52
2022-08-27T17:30:52.635Z,99638.79
2022-08-27T17:33:28.562Z,99642.77
2022-08-27T17:35:57.617Z,99644.63
2022-08-27T17:38:25.247Z,99647.61
2022-08-27T17:40:54.608Z,99649.95
2022-08-27T17:43:22.884Z,99647.84
2022-08-27T17:45:50.586Z,99652.67
2022-08-27T17:48:22.652Z,99650.05
2022-08-27T17:50:53.554Z,99656.38
2022-08-27T17:53:21.489Z,99655.39
2022-08-27T17:55:49.212Z,99657.71
2022-08-27T17:58:16.925Z,99660.27
2022-08-27T18:00:44.971Z,99661.39
2022-08-27T18:03:18.979Z,99664.08
2022-08-27T18:05:47.607Z,99664.02
2022-08-27T18:08:15.311Z,99665.25
2022-08-27T18:10:44.295Z,99669.82
2022-08-27T18:13:14.728Z,99668.23
2022-08-27T18:15:42.806Z,99675.71
2022-08-27T18:18:11.480Z,99673.55
2022-08-27T18:20:42.653Z,99678.59
2022-08-27T18:23:10.998Z,99680.82
2022-08-27T18:25:39.655Z,99682.14
2022-08-27T18:28:11.073Z,99681.65
2022-08-27T18:30:41.473Z,99681.49
2022-08-27T18:33:10.453Z,99686.57
2022-08-27T18:35:38.988Z,99689.73
2022-08-27T18:38:07.136Z,99686.49
2022-08-27T18:40:38.419Z,99690.39
2022-08-27T18:43:06.084Z,99688.93
2022-08-27T18:45:36.006Z,99690.01
2022-08-27T18:48:24.791Z,99695.75
2022-08-27T18:50:58.401Z,99697.03
2022-08-27T18:53:29.007Z,99703.98
2022-08-27T18:55:56.992Z,99705.66
2022-08-27T18:58:25.166Z,99710.64
2022-08-27T19:00:59.048Z,99708.80
2022-08-27T19:03:31.228Z,99711.70
2022-08-27T19:06:00.624Z,99711.95
2022-08-27T19:08:28.856Z,99713.14
2022-08-27T19:10:56.486Z,99710.45
2022-08-27T19:13:24.190Z,99715.82
2022-08-27T19:15:57.295Z,99714.30
2022-08-27T19:18:27.463Z,99712.34
2022-08-27T19:20:55.773Z,99718.42
2022-08-27T19:23:23.953Z,99720.98
2022-08-27T19:25:52.925Z,99719.77
2022-08-27T19:28:26.618Z,99716.91
2022-08-27T19:30:54.687Z,99718.60
2022-08-27T19:33:22.685Z,99718.96
2022-08-27T19:35:50.362Z,99714.77
2022-08-27T19:38:18.216Z,99714.64
2022-08-27T19:40:45.811Z,99716.63
2022-08-27T19:43:13.427Z,99723.63
2022-08-27T19:45:41.470Z,99724.27
2022-08-27T19:48:09.191Z,99723.59
2022-08-27T19:50:36.785Z,99727.54
2022-08-27T19:53:04.405Z,99723.14
2022-08-27T19:55:32.594Z,99723.73
2022-08-27T19:58:00.225Z,99725.77
2022-08-27T20:00:28.316Z,99726.95
2022-08-27T20:02:56.253Z,99726.45
2022-08-27T20:05:25.017Z,99725.45
2022-08-27T20:07:53.096Z,99730.70
2022-08-27T20:10:31.586Z,99734.02
2022-08-27T20:13:05.565Z,99739.64
2022-08-27T20:15:35.200Z,99742.84
2022-08-27T20:18:04.159Z,99742.55
2022-08-27T20:20:33.050Z,99750.40
2022-08-27T20:23:03.572Z,99750.20
2022-08-27T20:25:33.877Z,99752.06
2022-08-27T20:28:16.294Z,99756.77
2022-08-27T20:30:49.444Z,99757.43
2022-08-27T20:33:17.156Z,99759.64
2022-08-27T20:35:44.901Z,99758.42
2022-08-27T20:38:12.854Z,99760.45
2022-08-27T20:40:40.906Z,99759.74
2022-08-27T20:43:08.549Z,99758.23
2022-08-27T20:45:37.333Z,99756.51
2022-08-27T20:48:05.094Z,99755.83
2022-08-27T20:50:33.589Z,99756.73
2022-08-27T20:53:01.385Z,99755.07
2022-08-27T20:55:29.403Z,99753.36
2022-08-27T20:58:13.352Z,99755.41
2022-08-27T21:00:42.970Z,99751.04
2022-08-27T21:03:13.192Z,99745.95
2022-08-27T21:05:43.535Z,99749.27
2022-08-27T21:08:11.534Z,99745.84
2022-08-27T21:10:45.290Z,99745.55
2022-08-27T21:13:13.686Z,99745.09
2022-08-27T21:15:41.462Z,99741.63
2022-08-27T21:18:09.154Z,99748.17
2022-08-27T21:20:37.194Z,99749.23
2022-08-27T21:23:04.918Z,99749.79
2022-08-27T21:25:32.551Z,99748.61
2022-08-27T21:28:03.350Z,99751.98
2022-08-27T21:30:31.081Z,99746.85
2022-08-27T21:32:58.856Z,99745.52
2022-08-27T21:35:30.251Z,99745.23
2022-08-27T21:37:59.540Z,99747.91
2022-08-27T21:40:28.325Z,99745.98
2022-08-27T21:42:58.150Z,99747.74
2022-08-27T21:45:25.986Z,99744.56
2022-08-27T21:47:54.075Z,99744.38
2022-08-27T21:50:23.456Z,99740.70
2022-08-27T21:52:51.696Z,99742.79
2022-08-27T21:55:19.932Z,99743.64
2022-08-27T21:57:47.669Z,99740.85
2022-08-27T22:00:38.352Z,99745.98
2022-08-27T22:03:10.212Z,99745.28
2022-08-27T22:05:40.584Z,99745.14
2022-08-27T22:08:10.784Z,99741.44
2022-08-27T22:10:40.431Z,99745.69
2022-08-27T22:13:09.273Z,99743.18
2022-08-27T22:15:37.937Z,99745.52
2022-08-27T22:18:06.384Z,99746.60
2022-08-27T22:20:34.991Z,99741.78
2022-08-27T22:23:05.100Z,99740.85
2022-08-27T22:25:32.809Z,99741.29
2022-08-27T22:28:00.444Z,99742.31
2022-08-27T22:30:28.520Z,99742.77
2022-08-27T22:32:56.962Z,99738.08
2022-08-27T22:35:24.650Z,99741.35
2022-08-27T22:37:55.220Z,99744.24
2022-08-27T22:40:24.599Z,99739.73
2022-08-27T22:42:54.049Z,99734.92
2022-08-27T22:45:22.230Z,99735.84
2022-08-27T22:47:50.139Z,99732.89
2022-08-27T22:50:18.738Z,99735.44
2022-08-27T22:52:47.692Z,99730.88
2022-08-27T22:55:19.358Z,99729.54
2022-08-27T22:57:52.649Z,99730.41
2022-08-27T23:00:27.013Z,99725.64
2022-08-27T23:02:55.557Z,99722.18
2022-08-27T23:05:24.503Z,99722.02
2022-08-27T23:07:54.969Z,99717.92
2022-08-27T23:10:24.493Z,99719.45
2022-08-27T23:12:53.786Z,99715.63
2022-08-27T23:15:28.098Z,99714.91
2022-08-27T23:17:56.684Z,99712.96
2022-08-27T23:20:25.922Z,99713.15
2022-08-27T23:22:54.774Z,99709.14
2022-08-27T23:25:40.629Z,99708.98
2022-08-27T23:28:15.061Z,99709.83
2022-08-27T23:30:44.803Z,99707.82
2022-08-27T23:33:13.243Z,99705.34
2022-08-27T23:35:44.351Z,99705.64
2022-08-27T23:38:12.156Z,99706.41
2022-08-27T23:40:40.905Z,99710.02
2022-08-27T23:43:08.872Z,99707.09
2022-08-27T23:45:40.599Z,99710.02
2022-08-27T23:48:08.576Z,99709.24
2022-08-27T23:50:37.101Z,99708.20
2022-08-27T23:53:07.384Z,99708.41
2022-08-27T23:55:36.156Z,99706.77
2022-08-27T23:58:04.593Z,99706.52
